createdAt,value
2023-08-29T00:00:22.483Z,9.11
2023-08-29T00:02:50.260Z,9.28
2023-08-29T00:05:21.381Z,8.95
2023-08-29T00:07:49.170Z,9.13
2023-08-29T00:10:19.446Z,9.48
2023-08-29T00:12:47.169Z,9.15
2023-08-29T00:15:14.875Z,9.44
2023-08-29T00:17:44.859Z,9.59
2023-08-29T00:20:12.802Z,9.71
2023-08-29T00:22:40.521Z,9.80
2023-08-29T00:25:08.572Z,10.05
2023-08-29T00:27:36.257Z,9.95
2023-08-29T00:30:05.629Z,10.17
2023-08-29T00:32:34.313Z,9.85
2023-08-29T00:35:03.500Z,9.64
2023-08-29T00:37:31.194Z,9.87
2023-08-29T00:39:58.880Z,9.54
2023-08-29T00:42:26.579Z,9.42
2023-08-29T00:44:54.243Z,9.72
2023-08-29T00:47:21.978Z,9.59
2023-08-29T00:49:49.712Z,9.21
2023-08-29T00:52:18.836Z,9.25
2023-08-29T00:54:46.571Z,9.12
2023-08-29T00:57:14.510Z,9.17
2023-08-29T00:59:42.957Z,9.58
2023-08-29T01:02:10.844Z,9.34
2023-08-29T01:04:38.769Z,9.22
2023-08-29T01:07:07.609Z,8.86
2023-08-29T01:09:37.086Z,9.03
2023-08-29T01:12:10.929Z,9.27
2023-08-29T01:14:48.276Z,8.96
2023-08-29T01:17:21.783Z,9.16
2023-08-29T01:19:53.402Z,8.70
2023-08-29T01:22:28.373Z,8.99
2023-08-29T01:25:00.174Z,9.53
2023-08-29T01:27:30.881Z,9.65
2023-08-29T01:29:59.024Z,9.19
2023-08-29T01:32:27.589Z,9.14
2023-08-29T01:34:55.626Z,8.71
2023-08-29T01:37:23.338Z,8.59
2023-08-29T01:39:51.013Z,8.56
2023-08-29T01:42:18.700Z,8.59
2023-08-29T01:44:47.757Z,8.75
2023-08-29T01:47:15.452Z,8.34
2023-08-29T01:49:44.449Z,9.10
2023-08-29T01:52:12.147Z,9.47
2023-08-29T01:54:39.904Z,8.78
2023-08-29T01:57:10.262Z,8.42
2023-08-29T01:59:38.049Z,8.60
2023-08-29T02:02:07.194Z,9.39
2023-08-29T02:04:34.936Z,9.20
2023-08-29T02:07:02.633Z,9.09
2023-08-29T02:09:30.351Z,9.22
2023-08-29T02:11:58.103Z,8.89
2023-08-29T02:14:25.815Z,8.67
2023-08-29T02:16:53.514Z,8.60
2023-08-29T02:19:22.598Z,8.97
2023-08-29T02:21:50.306Z,8.81
2023-08-29T02:24:18.468Z,8.62
2023-08-29T02:26:46.165Z,8.66
2023-08-29T02:29:13.883Z,8.71
2023-08-29T02:31:41.626Z,8.70
2023-08-29T02:34:09.281Z,8.72
2023-08-29T02:36:38.367Z,8.90
2023-08-29T02:39:06.149Z,8.34
2023-08-29T02:41:36.984Z,8.70
2023-08-29T02:44:05.121Z,8.53
2023-08-29T02:46:32.956Z,8.27
2023-08-29T02:49:00.762Z,8.68
2023-08-29T02:51:28.547Z,8.84
2023-08-29T02:53:57.671Z,8.75
2023-08-29T02:56:25.461Z,8.61
2023-08-29T02:58:53.402Z,8.56
2023-08-29T03:01:21.161Z,7.95
2023-08-29T03:03:48.097Z,7.61
2023-08-29T03:06:16.062Z,7.24
2023-08-29T03:08:43.809Z,6.96
2023-08-29T03:11:13.368Z,6.85
2023-08-29T03:13:43.886Z,7.20
2023-08-29T03:16:16.269Z,6.93
2023-08-29T03:18:45.853Z,7.71
2023-08-29T03:21:13.634Z,7.61
2023-08-29T03:23:41.362Z,7.79
2023-08-29T03:26:11.512Z,7.92
2023-08-29T03:28:40.896Z,7.77
2023-08-29T03:31:09.313Z,7.13
2023-08-29T03:33:37.372Z,7.47
2023-08-29T03:36:05.398Z,7.76
2023-08-29T03:38:36.385Z,7.67
2023-08-29T03:41:04.856Z,7.32
2023-08-29T03:43:33.330Z,7.01
2023-08-29T03:46:03.691Z,7.05
2023-08-29T03:48:32.688Z,7.18
2023-08-29T03:51:02.976Z,6.98
2023-08-29T03:53:30.710Z,7.41
2023-08-29T03:56:00.979Z,7.05
2023-08-29T03:58:28.766Z,6.06
2023-08-29T04:00:57.075Z,5.68
2023-08-29T04:03:26.882Z,5.36
2023-08-29T04:06:07.769Z,5.40
2023-08-29T04:08:35.545Z,5.01
2023-08-29T04:11:05.149Z,4.70
2023-08-29T04:13:34.540Z,4.63
2023-08-29T04:16:05.936Z,4.52
2023-08-29T04:18:35.639Z,4.38
2023-08-29T04:21:03.484Z,4.15
2023-08-29T04:23:31.222Z,5.00
2023-08-29T04:25:59.876Z,4.40
2023-08-29T04:28:28.206Z,4.09
2023-08-29T04:30:56.452Z,3.94
2023-08-29T04:33:26.502Z,3.85
2023-08-29T04:35:55.849Z,4.39
2023-08-29T04:38:23.659Z,4.61
2023-08-29T04:40:51.537Z,4.24
2023-08-29T04:43:19.708Z,4.73
2023-08-29T04:45:53.935Z,5.40
2023-08-29T04:48:24.527Z,5.58
2023-08-29T04:50:52.242Z,5.78
2023-08-29T04:53:22.391Z,5.88
2023-08-29T04:55:50.144Z,5.62
2023-08-29T04:58:17.908Z,5.63
2023-08-29T05:00:45.617Z,5.15
2023-08-29T05:03:15.673Z,4.87
2023-08-29T05:05:47.075Z,4.31
2023-08-29T05:08:15.036Z,3.72
2023-08-29T05:10:44.209Z,3.89
2023-08-29T05:13:12.597Z,3.64
2023-08-29T05:15:43.162Z,3.64
2023-08-29T05:18:11.333Z,3.59
2023-08-29T05:20:39.856Z,3.51
2023-08-29T05:23:07.656Z,3.83
2023-08-29T05:25:35.427Z,3.87
2023-08-29T05:28:05.341Z,4.24
2023-08-29T05:30:36.214Z,4.20
2023-08-29T05:33:04.000Z,4.74
2023-08-29T05:35:31.733Z,4.94
2023-08-29T05:37:59.525Z,5.05
2023-08-29T05:40:27.579Z,5.41
2023-08-29T05:42:55.418Z,6.17
2023-08-29T05:45:24.491Z,6.16
2023-08-29T05:47:52.306Z,6.44
2023-08-29T05:50:25.803Z,6.22
2023-08-29T05:52:53.544Z,6.24
2023-08-29T05:55:21.267Z,6.22
2023-08-29T05:57:49.012Z,5.95
2023-08-29T06:00:17.410Z,6.19
2023-08-29T06:02:47.190Z,6.00
2023-08-29T06:05:14.910Z,5.50
2023-08-29T06:07:42.633Z,5.31
2023-08-29T06:10:10.845Z,5.37
2023-08-29T06:12:38.591Z,5.04
2023-08-29T06:15:06.676Z,4.74
2023-08-29T06:17:34.454Z,4.57
2023-08-29T06:20:04.183Z,3.95
2023-08-29T06:22:32.013Z,4.49
2023-08-29T06:24:59.700Z,3.94
2023-08-29T06:27:27.453Z,3.66
2023-08-29T06:29:55.166Z,3.69
2023-08-29T06:32:22.981Z,3.36
2023-08-29T06:34:50.787Z,3.06
2023-08-29T06:37:19.915Z,3.05
2023-08-29T06:39:49.806Z,3.10
2023-08-29T06:42:17.552Z,3.20
2023-08-29T06:44:48.024Z,3.29
2023-08-29T06:47:15.818Z,3.52
2023-08-29T06:49:43.564Z,3.44
2023-08-29T06:52:11.269Z,3.35
2023-08-29T06:54:40.332Z,3.07
2023-08-29T06:57:08.102Z,3.17
2023-08-29T06:59:35.788Z,2.75
2023-08-29T07:02:03.547Z,2.64
2023-08-29T07:04:32.900Z,2.48
2023-08-29T07:07:00.656Z,2.68
2023-08-29T07:09:29.140Z,2.69
2023-08-29T07:12:04.835Z,2.35
2023-08-29T07:14:32.558Z,1.90
2023-08-29T07:17:08.902Z,1.77
2023-08-29T07:19:37.540Z,1.56
2023-08-29T07:22:21.292Z,1.75
2023-08-29T07:24:50.888Z,1.85
2023-08-29T07:27:20.168Z,1.88
2023-08-29T07:29:48.131Z,1.92
2023-08-29T07:32:15.946Z,1.64
2023-08-29T07:34:43.748Z,1.57
2023-08-29T07:37:11.489Z,1.56
2023-08-29T07:39:39.223Z,1.61
2023-08-29T07:42:07.256Z,1.42
2023-08-29T07:44:38.863Z,1.33
2023-08-29T07:47:15.452Z,1.53
2023-08-29T07:49:43.925Z,1.54
2023-08-29T07:52:11.788Z,1.54
2023-08-29T07:54:39.639Z,1.50
2023-08-29T07:57:07.410Z,1.44
2023-08-29T07:59:36.526Z,1.42
2023-08-29T08:02:06.012Z,1.38
2023-08-29T08:04:33.850Z,1.28
2023-08-29T08:07:01.567Z,1.38
2023-08-29T08:09:29.751Z,1.32
2023-08-29T08:11:57.490Z,1.38
2023-08-29T08:14:25.366Z,1.30
2023-08-29T08:16:54.466Z,1.68
2023-08-29T08:19:22.351Z,1.69
2023-08-29T08:21:51.422Z,1.77
2023-08-29T08:24:19.312Z,1.56
2023-08-29T08:26:47.402Z,1.78
2023-08-29T08:29:15.185Z,1.81
2023-08-29T08:31:42.999Z,2.02
2023-08-29T08:34:13.051Z,2.08
2023-08-29T08:36:40.806Z,2.27
2023-08-29T08:39:08.685Z,2.29
2023-08-29T08:41:36.414Z,2.30
2023-08-29T08:44:07.388Z,2.66
2023-08-29T08:46:36.380Z,2.75
2023-08-29T08:49:04.508Z,2.72
2023-08-29T08:51:34.331Z,2.66
2023-08-29T08:54:02.308Z,2.68
2023-08-29T08:56:31.176Z,2.48
2023-08-29T08:58:59.503Z,2.19
2023-08-29T09:01:27.323Z,2.15
2023-08-29T09:03:55.291Z,1.92
2023-08-29T09:06:23.080Z,1.93
2023-08-29T09:08:52.292Z,2.09
2023-08-29T09:11:20.799Z,2.14
2023-08-29T09:13:49.023Z,2.33
2023-08-29T09:16:18.508Z,2.45
2023-08-29T09:18:52.268Z,2.36
2023-08-29T09:21:20.321Z,2.89
2023-08-29T09:23:48.124Z,3.00
2023-08-29T09:26:17.523Z,2.97
2023-08-29T09:28:49.380Z,3.00
2023-08-29T09:31:18.123Z,3.31
2023-08-29T09:33:45.969Z,3.29
2023-08-29T09:36:13.240Z,3.72
2023-08-29T09:38:42.823Z,3.77
2023-08-29T09:41:14.028Z,3.99
2023-08-29T09:43:49.597Z,4.39
2023-08-29T09:46:24.928Z,4.62
2023-08-29T09:48:56.466Z,4.78
2023-08-29T09:51:25.198Z,4.66
2023-08-29T09:53:53.276Z,4.83
2023-08-29T09:56:21.912Z,5.18
2023-08-29T09:58:52.804Z,4.40
2023-08-29T10:01:23.598Z,4.12
2023-08-29T10:03:51.392Z,4.12
2023-08-29T10:06:20.173Z,4.07
2023-08-29T10:08:53.603Z,3.96
2023-08-29T10:11:22.060Z,3.54
2023-08-29T10:13:55.407Z,3.35
2023-08-29T10:16:24.084Z,3.38
2023-08-29T10:18:52.342Z,3.02
2023-08-29T10:21:22.574Z,2.92
2023-08-29T10:23:51.889Z,2.51
2023-08-29T10:26:19.645Z,2.48
2023-08-29T10:28:48.977Z,2.18
2023-08-29T10:31:21.620Z,2.11
2023-08-29T10:33:52.488Z,1.80
2023-08-29T10:36:20.263Z,1.64
2023-08-29T10:38:49.212Z,1.48
2023-08-29T10:41:16.969Z,1.49
2023-08-29T10:43:44.866Z,1.53
2023-08-29T10:46:23.998Z,1.55
2023-08-29T10:48:53.838Z,1.63
2023-08-29T10:51:26.347Z,1.65
2023-08-29T10:53:55.209Z,1.73
2023-08-29T10:56:29.103Z,2.05
2023-08-29T10:58:57.383Z,2.04
2023-08-29T11:01:33.065Z,1.90
2023-08-29T11:04:04.917Z,1.97
2023-08-29T11:06:47.552Z,1.69
2023-08-29T11:09:19.586Z,1.58
2023-08-29T11:11:47.307Z,1.63
2023-08-29T11:14:15.055Z,1.64
2023-08-29T11:17:02.783Z,1.39
2023-08-29T11:19:32.050Z,1.37
2023-08-29T11:22:00.568Z,1.15
2023-08-29T11:24:29.160Z,1.10
2023-08-29T11:26:59.454Z,1.12
2023-08-29T11:29:27.203Z,1.21
2023-08-29T11:31:55.006Z,1.04
2023-08-29T11:34:22.822Z,1.09
2023-08-29T11:36:54.414Z,1.23
2023-08-29T11:39:26.355Z,1.16
2023-08-29T11:42:14.246Z,1.12
2023-08-29T11:45:35.574Z,1.25
2023-08-29T11:47:33.454Z,1.13
2023-08-29T11:50:05.858Z,1.32
2023-08-29T11:52:35.089Z,1.30
2023-08-29T11:55:05.398Z,1.35
2023-08-29T11:57:33.101Z,1.26
2023-08-29T12:00:00.940Z,1.54
2023-08-29T12:02:31.994Z,1.51
2023-08-29T12:04:59.924Z,1.54
2023-08-29T12:07:32.722Z,1.44
2023-08-29T12:10:09.468Z,1.56
2023-08-29T12:12:38.288Z,1.54
2023-08-29T12:15:07.781Z,1.68
2023-08-29T12:17:40.163Z,1.86
2023-08-29T12:20:23.153Z,1.78
2023-08-29T12:22:51.531Z,1.93
2023-08-29T12:25:20.797Z,1.94
2023-08-29T12:27:49.028Z,2.06
2023-08-29T12:30:17.225Z,2.84
2023-08-29T12:32:45.834Z,2.72
2023-08-29T12:35:14.913Z,2.64
2023-08-29T12:37:42.757Z,3.01
2023-08-29T12:40:13.278Z,2.48
2023-08-29T12:42:43.721Z,1.85
2023-08-29T12:45:12.106Z,1.69
2023-08-29T12:47:40.280Z,1.52
2023-08-29T12:50:09.053Z,1.60
2023-08-29T12:52:36.855Z,2.24
2023-08-29T12:55:05.620Z,1.61
2023-08-29T12:57:35.813Z,2.38
2023-08-29T13:00:08.156Z,1.53
2023-08-29T13:02:35.979Z,1.31
2023-08-29T13:05:03.875Z,1.35
2023-08-29T13:07:32.036Z,1.08
2023-08-29T13:09:59.764Z,1.08
2023-08-29T13:12:27.549Z,1.08
2023-08-29T13:14:55.286Z,1.22
2023-08-29T13:17:24.472Z,1.26
2023-08-29T13:19:52.250Z,1.21
2023-08-29T13:22:20.214Z,1.12
2023-08-29T13:24:48.580Z,1.24
2023-08-29T13:27:16.344Z,1.28
2023-08-29T13:29:44.102Z,1.44
2023-08-29T13:32:12.362Z,1.35
2023-08-29T13:34:41.480Z,1.44
2023-08-29T13:37:09.257Z,1.55
2023-08-29T13:39:37.042Z,1.59
2023-08-29T13:42:05.493Z,1.57
2023-08-29T13:44:33.183Z,1.68
2023-08-29T13:47:00.949Z,1.66
2023-08-29T13:49:28.661Z,1.65
2023-08-29T13:52:00.840Z,1.67
2023-08-29T13:54:31.890Z,1.62
2023-08-29T13:57:02.746Z,1.72
2023-08-29T13:59:32.281Z,1.87
2023-08-29T14:02:00.072Z,1.91
2023-08-29T14:04:28.018Z,1.98
2023-08-29T14:06:57.132Z,2.14
2023-08-29T14:09:24.810Z,2.13
2023-08-29T14:11:52.437Z,2.16
2023-08-29T14:14:20.146Z,1.99
2023-08-29T14:16:47.881Z,2.21
2023-08-29T14:19:15.591Z,2.58
2023-08-29T14:21:43.349Z,2.78
2023-08-29T14:24:12.458Z,3.28
2023-08-29T14:26:40.244Z,3.30
2023-08-29T14:29:08.258Z,3.95
2023-08-29T14:31:36.101Z,4.45
2023-08-29T14:34:03.882Z,4.00
2023-08-29T14:36:32.853Z,3.81
2023-08-29T14:39:02.963Z,3.60
2023-08-29T14:41:32.097Z,3.96
2023-08-29T14:43:59.805Z,3.89
2023-08-29T14:46:27.617Z,4.15
2023-08-29T14:48:55.352Z,4.15
2023-08-29T14:51:23.115Z,4.68
2023-08-29T14:53:51.769Z,4.31
2023-08-29T14:56:19.506Z,4.23
2023-08-29T14:58:48.667Z,4.34
2023-08-29T15:01:16.414Z,4.56
2023-08-29T15:03:44.632Z,4.94
2023-08-29T15:06:12.912Z,5.03
2023-08-29T15:08:40.662Z,5.23
2023-08-29T15:11:08.408Z,5.29
2023-08-29T15:13:38.739Z,5.85
2023-08-29T15:16:08.846Z,5.47
2023-08-29T15:18:36.616Z,5.52
2023-08-29T15:21:04.603Z,5.38
2023-08-29T15:23:32.331Z,5.88
2023-08-29T15:26:00.428Z,5.47
2023-08-29T15:28:29.990Z,5.57
2023-08-29T15:30:59.614Z,5.71
2023-08-29T15:33:28.967Z,5.64
2023-08-29T15:35:58.120Z,5.89
2023-08-29T15:38:26.225Z,5.83
2023-08-29T15:40:56.010Z,5.47
2023-08-29T15:43:25.776Z,5.54
2023-08-29T15:45:55.325Z,5.49
2023-08-29T15:48:23.163Z,5.36
2023-08-29T15:50:54.225Z,5.52
2023-08-29T15:53:22.014Z,5.19
2023-08-29T15:55:50.524Z,5.37
2023-08-29T15:58:18.357Z,5.13
2023-08-29T16:00:46.107Z,5.37
2023-08-29T16:03:13.913Z,5.09
2023-08-29T16:05:41.671Z,5.36
2023-08-29T16:08:11.226Z,5.31
2023-08-29T16:10:41.655Z,5.71
2023-08-29T16:13:09.563Z,5.14
2023-08-29T16:15:37.330Z,5.17
2023-08-29T16:18:06.054Z,5.30
2023-08-29T16:20:34.014Z,5.27
2023-08-29T16:23:01.780Z,5.38
2023-08-29T16:25:30.916Z,5.91
2023-08-29T16:28:00.871Z,7.47
2023-08-29T16:30:28.878Z,6.87
2023-08-29T16:32:57.201Z,6.66
2023-08-29T16:35:24.937Z,6.69
2023-08-29T16:37:52.683Z,6.57
2023-08-29T16:40:20.507Z,6.42
2023-08-29T16:42:49.684Z,6.10
2023-08-29T16:45:17.439Z,6.14
2023-08-29T16:47:45.254Z,6.01
2023-08-29T16:50:13.206Z,5.78
2023-08-29T16:52:41.064Z,5.85
2023-08-29T16:55:09.263Z,6.03
2023-08-29T16:57:37.040Z,5.68
2023-08-29T17:00:11.412Z,5.99
2023-08-29T17:02:39.499Z,5.82
2023-08-29T17:05:08.331Z,5.80
2023-08-29T17:07:36.159Z,6.10
2023-08-29T17:10:04.213Z,6.38
2023-08-29T17:12:32.020Z,5.69
2023-08-29T17:14:59.830Z,5.68
2023-08-29T17:17:28.960Z,5.56
2023-08-29T17:19:56.727Z,5.37
2023-08-29T17:22:24.490Z,5.22
2023-08-29T17:24:52.515Z,4.98
2023-08-29T17:27:20.293Z,4.84
2023-08-29T17:29:48.011Z,4.75
2023-08-29T17:32:17.439Z,4.66
2023-08-29T17:34:47.185Z,4.21
2023-08-29T17:37:15.389Z,4.18
2023-08-29T17:39:43.373Z,4.55
2023-08-29T17:42:11.119Z,4.34
2023-08-29T17:44:38.822Z,4.25
2023-08-29T17:47:07.317Z,4.77
2023-08-29T17:49:35.026Z,4.69
2023-08-29T17:52:04.182Z,4.63
2023-08-29T17:54:32.125Z,5.04
2023-08-29T17:56:59.889Z,5.43
2023-08-29T17:59:27.738Z,5.00
2023-08-29T18:01:58.524Z,5.16
2023-08-29T18:04:26.283Z,4.66
2023-08-29T18:06:54.444Z,4.45
2023-08-29T18:09:23.730Z,4.85
2023-08-29T18:11:51.505Z,4.93
2023-08-29T18:14:19.235Z,4.88
2023-08-29T18:16:47.085Z,4.69
2023-08-29T18:19:15.480Z,5.01
2023-08-29T18:21:43.203Z,4.95
2023-08-29T18:24:13.119Z,5.23
2023-08-29T18:26:42.369Z,5.08
2023-08-29T18:29:10.368Z,4.91
2023-08-29T18:31:38.129Z,5.26
2023-08-29T18:34:05.941Z,5.09
2023-08-29T18:36:33.907Z,4.83
2023-08-29T18:39:01.726Z,5.05
2023-08-29T18:41:29.465Z,4.85
2023-08-29T18:43:59.334Z,4.56
2023-08-29T18:46:27.047Z,4.34
2023-08-29T18:48:54.818Z,3.60
2023-08-29T18:51:22.545Z,3.74
2023-08-29T18:53:50.276Z,3.39
2023-08-29T18:56:20.140Z,3.37
2023-08-29T18:58:47.978Z,3.38
2023-08-29T19:01:17.119Z,3.13
2023-08-29T19:03:45.311Z,3.04
2023-08-29T19:06:17.338Z,3.32
2023-08-29T19:08:45.332Z,3.32
2023-08-29T19:11:15.881Z,3.32
2023-08-29T19:13:43.905Z,3.57
2023-08-29T19:16:11.956Z,3.86
2023-08-29T19:18:41.156Z,3.61
2023-08-29T19:21:08.978Z,3.81
2023-08-29T19:23:37.014Z,3.78
2023-08-29T19:26:04.128Z,4.08
2023-08-29T19:28:31.886Z,3.71
2023-08-29T19:30:59.615Z,3.93
2023-08-29T19:33:27.630Z,4.07
2023-08-29T19:35:56.864Z,3.77
2023-08-29T19:38:24.585Z,4.06
2023-08-29T19:40:53.245Z,3.76
2023-08-29T19:43:20.953Z,3.72
2023-08-29T19:45:48.833Z,3.68
2023-08-29T19:48:21.741Z,3.63
2023-08-29T19:50:49.598Z,3.60
2023-08-29T19:53:18.722Z,3.74
2023-08-29T19:55:47.259Z,3.54
2023-08-29T19:58:15.447Z,3.68
2023-08-29T20:00:43.711Z,3.67
2023-08-29T20:03:11.488Z,3.83
2023-08-29T20:05:39.655Z,3.89
2023-08-29T20:08:07.896Z,3.64
2023-08-29T20:10:38.714Z,3.86
2023-08-29T20:13:06.459Z,3.77
2023-08-29T20:15:34.287Z,3.76
2023-08-29T20:18:01.983Z,3.98
2023-08-29T20:20:29.853Z,3.92
2023-08-29T20:22:57.553Z,3.84
2023-08-29T20:25:25.309Z,3.88
2023-08-29T20:27:54.448Z,3.86
2023-08-29T20:30:23.796Z,3.74
2023-08-29T20:32:52.021Z,3.74
2023-08-29T20:35:19.862Z,3.81
2023-08-29T20:37:47.903Z,3.89
2023-08-29T20:40:15.705Z,4.09
2023-08-29T20:42:43.503Z,4.18
2023-08-29T20:45:13.151Z,4.23
2023-08-29T20:47:40.992Z,4.01
2023-08-29T20:50:09.016Z,4.21
2023-08-29T20:52:36.742Z,4.17
2023-08-29T20:55:05.240Z,4.15
2023-08-29T20:57:33.499Z,4.00
2023-08-29T21:00:01.265Z,4.60
2023-08-29T21:02:31.005Z,4.39
2023-08-29T21:04:58.868Z,4.60
2023-08-29T21:07:26.680Z,4.62
2023-08-29T21:09:54.391Z,4.34
2023-08-29T21:12:22.641Z,4.33
2023-08-29T21:14:50.821Z,4.49
2023-08-29T21:17:22.185Z,4.59
2023-08-29T21:19:51.281Z,4.39
2023-08-29T21:22:19.132Z,4.33
2023-08-29T21:24:46.900Z,5.12
2023-08-29T21:27:14.646Z,4.99
2023-08-29T21:29:44.521Z,4.87
2023-08-29T21:32:12.277Z,4.87
2023-08-29T21:34:40.022Z,4.83
2023-08-29T21:37:09.126Z,5.22
2023-08-29T21:39:37.690Z,5.79
2023-08-29T21:42:05.771Z,5.61
2023-08-29T21:44:33.648Z,5.53
2023-08-29T21:47:01.358Z,5.79
2023-08-29T21:49:29.118Z,5.47
2023-08-29T21:51:56.818Z,6.08
2023-08-29T21:54:26.304Z,5.73
2023-08-29T21:56:54.025Z,5.99
2023-08-29T21:59:22.012Z,5.96
2023-08-29T22:01:50.064Z,6.12
2023-08-29T22:04:18.128Z,6.40
2023-08-29T22:06:45.873Z,6.35
2023-08-29T22:09:13.627Z,6.57
2023-08-29T22:11:42.733Z,6.03
2023-08-29T22:14:10.457Z,6.61
2023-08-29T22:16:38.174Z,6.38
2023-08-29T22:19:05.980Z,6.70
2023-08-29T22:21:33.731Z,6.79
2023-08-29T22:24:01.501Z,7.09
2023-08-29T22:26:29.216Z,6.88
2023-08-29T22:28:58.344Z,7.47
2023-08-29T22:31:26.042Z,7.41
2023-08-29T22:33:53.790Z,7.78
2023-08-29T22:36:21.498Z,7.01
2023-08-29T22:38:49.240Z,7.51
2023-08-29T22:41:28.639Z,7.26
2023-08-29T22:43:58.156Z,7.63
2023-08-29T22:46:25.876Z,8.15
2023-08-29T22:48:54.856Z,7.69
2023-08-29T22:51:22.608Z,7.85
2023-08-29T22:53:50.905Z,7.46
2023-08-29T22:56:19.435Z,8.07
2023-08-29T22:58:47.266Z,8.06
2023-08-29T23:01:16.422Z,7.88
2023-08-29T23:03:44.213Z,7.90
2023-08-29T23:06:11.938Z,7.56
2023-08-29T23:08:39.747Z,8.00
2023-08-29T23:11:07.844Z,8.41
2023-08-29T23:13:35.635Z,8.39
2023-08-29T23:16:04.007Z,8.00
2023-08-29T23:18:33.140Z,8.82
2023-08-29T23:21:00.846Z,8.73
2023-08-29T23:23:28.597Z,9.36
2023-08-29T23:25:56.927Z,9.66
2023-08-29T23:28:25.445Z,9.77
2023-08-29T23:30:53.686Z,9.70
2023-08-29T23:33:21.482Z,9.82
2023-08-29T23:35:51.251Z,10.25
2023-08-29T23:38:18.993Z,10.42
2023-08-29T23:40:47.647Z,10.55
2023-08-29T23:43:17.853Z,10.99
2023-08-29T23:45:45.596Z,11.10
2023-08-29T23:48:13.364Z,11.85
2023-08-29T23:50:41.142Z,11.71
2023-08-29T23:53:10.333Z,11.97
2023-08-29T23:55:38.318Z,12.64
2023-08-29T23:58:06.297Z,11.93
